createdAt,value
2019-04-27T00:30:53.243Z,94571.63
2019-04-27T00:46:00.125Z,94575.88
2019-04-27T01:00:59.895Z,94571.53
2019-04-27T01:15:54.192Z,94555.12
2019-04-27T01:45:49.843Z,94536.57
2019-04-27T02:00:54.505Z,94527.44
2019-04-27T02:15:49.847Z,94530.65
2019-04-27T02:45:55.111Z,94511.26
2019-04-27T03:00:53.017Z,94512.53
2019-04-27T03:16:00.451Z,94494.28
2019-04-27T03:30:52.097Z,94490.57
2019-04-27T03:45:52.025Z,94480.14
2019-04-27T04:45:59.483Z,94472.51
2019-04-27T05:00:50.333Z,94462.61
2019-04-27T05:15:55.260Z,94458.91
2019-04-27T05:30:49.381Z,94455.25
2019-04-27T06:00:49.659Z,94461.25
2019-04-27T06:15:59.306Z,94448.74
2019-04-27T06:30:49.296Z,94435.65
2019-04-27T06:45:49.012Z,94443.54
2019-04-27T07:00:49.694Z,94431.64
2019-04-27T07:15:48.915Z,94419.31
2019-04-27T07:30:49.729Z,94418.23
2019-04-27T07:45:59.142Z,94413.98
2019-04-27T08:00:50.938Z,94403.81
2019-04-27T08:15:49.630Z,94394.83
2019-04-27T08:45:49.394Z,94367.64
2019-04-27T09:00:49.354Z,94339.75
2019-04-27T09:15:51.018Z,94316.21
2019-04-27T09:30:49.860Z,94304.06
2019-04-27T09:45:49.305Z,94271.98
2019-04-27T10:00:49.778Z,94253.52
2019-04-27T10:15:49.588Z,94213.44
2019-04-27T10:30:49.637Z,94191.30
2019-04-27T10:45:50.197Z,94176.45
2019-04-27T11:00:50.648Z,94139.70
2019-04-27T11:15:49.370Z,94125.55
2019-04-27T11:30:55.012Z,94109.77
2019-04-27T11:45:49.689Z,94093.18
2019-04-27T12:15:49.348Z,94134.90
2019-04-27T12:30:56.829Z,94106.25
2019-04-27T12:45:49.687Z,94175.48
2019-04-27T13:00:59.952Z,94169.92
2019-04-27T13:15:52.531Z,94156.64
2019-04-27T13:30:49.421Z,94144.30
2019-04-27T13:45:49.990Z,94124.77
2019-04-27T14:00:48.948Z,94148.37
2019-04-27T14:15:49.104Z,94116.34
2019-04-27T14:30:48.703Z,94159.62
2019-04-27T14:45:50.777Z,94269.59
2019-04-27T15:00:54.128Z,94375.59
2019-04-27T15:30:59.518Z,94358.03
2019-04-27T15:45:53.517Z,94367.67
2019-04-27T16:00:56.243Z,94343.55
2019-04-27T16:30:50.651Z,94304.31
2019-04-27T16:45:52.477Z,94306.38
2019-04-27T17:00:50.017Z,94267.34
2019-04-27T17:30:52.594Z,94238.19
2019-04-27T17:45:50.746Z,94239.81
2019-04-27T18:00:51.359Z,94267.72
2019-04-27T18:15:50.688Z,94306.34
2019-04-27T18:30:59.863Z,94339.22
2019-04-27T19:00:49.535Z,94355.17
2019-04-27T19:15:50.881Z,94335.27
2019-04-27T19:45:49.739Z,94333.41
2019-04-27T20:15:51.299Z,94327.27
2019-04-27T20:30:49.621Z,94317.81
2019-04-27T20:45:51.559Z,94305.11
2019-04-27T21:00:56.110Z,94286.71
2019-04-27T21:15:50.920Z,94281.38
2019-04-27T21:30:49.886Z,94279.14
2019-04-27T21:45:53.369Z,94273.05
2019-04-27T22:15:54.354Z,94274.47
2019-04-27T22:30:56.274Z,94270.30
2019-04-27T22:45:51.698Z,94268.97
2019-04-27T23:15:54.170Z,94253.54
2019-04-27T23:30:54.350Z,94251.23
